createdAt,value
2017-11-06T00:02:11.120Z,97.50
2017-11-06T00:04:38.183Z,98.90
2017-11-06T00:07:04.509Z,98.10
2017-11-06T00:09:32.004Z,97.10
2017-11-06T00:11:58.317Z,97.20
2017-11-06T00:14:24.637Z,97.30
2017-11-06T00:16:51.723Z,97.40
2017-11-06T00:19:18.041Z,97.40
2017-11-06T00:21:44.472Z,96.90
2017-11-06T00:24:11.820Z,97.30
2017-11-06T00:26:38.885Z,98.40
2017-11-06T00:29:05.936Z,96.90
2017-11-06T00:31:33.580Z,95.40
2017-11-06T00:33:59.893Z,95.40
2017-11-06T00:36:26.829Z,95.90
2017-11-06T00:38:53.573Z,96.20
2017-11-06T00:41:20.944Z,95.70
2017-11-06T00:43:47.576Z,95.10
2017-11-06T00:46:14.541Z,96.40
2017-11-06T00:48:40.861Z,96.70
2017-11-06T00:51:07.644Z,97.10
2017-11-06T00:53:33.965Z,97.20
2017-11-06T00:56:00.277Z,96.00
2017-11-06T00:58:27.240Z,96.60
2017-11-06T01:00:53.993Z,96.30
2017-11-06T01:03:20.303Z,96.60
2017-11-06T01:05:47.282Z,96.80
2017-11-06T01:08:13.588Z,95.80
2017-11-06T01:10:39.908Z,94.40
2017-11-06T01:13:06.252Z,93.90
2017-11-06T01:15:32.582Z,94.60
2017-11-06T01:17:58.981Z,90.80
2017-11-06T01:20:25.501Z,93.00
2017-11-06T01:22:52.549Z,91.70
2017-11-06T01:25:18.864Z,91.20
2017-11-06T01:27:45.185Z,93.00
2017-11-06T01:30:12.167Z,93.00
2017-11-06T01:32:39.130Z,92.50
2017-11-06T01:35:05.449Z,92.80
2017-11-06T01:37:32.421Z,92.60
2017-11-06T01:39:58.741Z,93.60
2017-11-06T01:42:25.099Z,92.70
2017-11-06T01:44:52.757Z,92.10
2017-11-06T01:47:19.098Z,92.30
2017-11-06T01:49:45.434Z,93.60
2017-11-06T01:52:13.860Z,89.50
2017-11-06T01:54:40.973Z,89.60
2017-11-06T01:57:07.911Z,89.60
2017-11-06T01:59:35.464Z,90.30
2017-11-06T02:02:01.822Z,90.20
2017-11-06T02:04:28.725Z,91.80
2017-11-06T02:06:55.027Z,92.10
2017-11-06T02:09:21.365Z,91.50
2017-11-06T02:11:47.876Z,92.40
2017-11-06T02:14:14.206Z,93.00
2017-11-06T02:16:40.615Z,92.90
2017-11-06T02:19:08.693Z,94.10
2017-11-06T02:21:35.404Z,93.00
2017-11-06T02:24:02.497Z,93.40
2017-11-06T02:26:29.604Z,93.30
2017-11-06T02:28:57.548Z,93.20
2017-11-06T02:31:24.446Z,93.20
2017-11-06T02:33:51.536Z,94.50
2017-11-06T02:36:18.429Z,94.50
2017-11-06T02:38:45.383Z,93.20
2017-11-06T02:41:12.308Z,92.90
2017-11-06T02:43:39.356Z,91.40
2017-11-06T02:46:06.205Z,93.60
2017-11-06T02:48:32.847Z,93.30
2017-11-06T02:50:59.700Z,92.60
2017-11-06T02:53:26.032Z,91.00
2017-11-06T02:55:52.803Z,89.50
2017-11-06T02:58:19.127Z,92.50
2017-11-06T03:00:47.421Z,92.10
2017-11-06T03:03:13.767Z,91.90
2017-11-06T03:05:40.817Z,91.90
2017-11-06T03:08:07.904Z,89.90
2017-11-06T03:10:34.817Z,89.40
2017-11-06T03:13:01.132Z,89.30
2017-11-06T03:15:27.436Z,89.20
2017-11-06T03:17:54.600Z,89.40
2017-11-06T03:20:21.613Z,89.70
2017-11-06T03:22:47.958Z,86.80
2017-11-06T03:25:14.309Z,88.50
2017-11-06T03:27:40.687Z,87.40
2017-11-06T03:30:07.053Z,89.90
2017-11-06T03:32:34.578Z,87.00
2017-11-06T03:35:01.638Z,86.90
2017-11-06T03:37:28.707Z,87.40
2017-11-06T03:39:55.023Z,86.70
2017-11-06T03:42:21.357Z,86.00
2017-11-06T03:44:48.308Z,87.30
2017-11-06T03:47:14.627Z,88.90
2017-11-06T03:49:40.949Z,86.70
2017-11-06T03:52:07.732Z,85.60
2017-11-06T03:54:34.583Z,88.20
2017-11-06T03:57:02.384Z,85.50
2017-11-06T03:59:30.117Z,85.50
2017-11-06T04:01:56.424Z,85.50
2017-11-06T04:04:22.716Z,86.90
2017-11-06T04:06:49.953Z,89.30
2017-11-06T04:09:17.014Z,87.40
2017-11-06T04:11:43.844Z,87.50
2017-11-06T04:14:10.151Z,87.80
2017-11-06T04:16:37.228Z,85.60
2017-11-06T04:19:03.564Z,85.20
2017-11-06T04:21:30.455Z,85.80
2017-11-06T04:23:57.532Z,86.20
2017-11-06T04:26:23.855Z,86.30
2017-11-06T04:28:50.208Z,85.60
2017-11-06T04:31:17.188Z,86.70
2017-11-06T04:33:44.469Z,87.80
2017-11-06T04:36:10.823Z,88.50
2017-11-06T04:38:38.373Z,85.90
2017-11-06T04:41:04.740Z,85.80
2017-11-06T04:43:31.079Z,87.30
2017-11-06T04:45:58.007Z,86.70
2017-11-06T04:48:25.083Z,85.90
2017-11-06T04:50:52.084Z,85.90
2017-11-06T04:53:18.406Z,86.90
2017-11-06T04:55:45.269Z,87.40
2017-11-06T04:58:12.211Z,86.90
2017-11-06T05:00:38.517Z,88.90
2017-11-06T05:03:05.616Z,86.30
2017-11-06T05:05:33.413Z,88.00
2017-11-06T05:08:00.481Z,87.50
2017-11-06T05:10:27.496Z,87.40
2017-11-06T05:12:54.627Z,85.70
2017-11-06T05:15:21.685Z,85.90
2017-11-06T05:17:49.357Z,87.10
2017-11-06T05:20:15.685Z,88.40
2017-11-06T05:22:42.539Z,87.10
2017-11-06T05:25:08.892Z,85.80
2017-11-06T05:27:35.216Z,87.10
2017-11-06T05:30:02.384Z,87.60
2017-11-06T05:32:29.168Z,87.70
2017-11-06T05:34:55.496Z,87.50
2017-11-06T05:37:22.293Z,92.00
2017-11-06T05:39:49.376Z,85.50
2017-11-06T05:42:15.720Z,92.10
2017-11-06T05:44:42.812Z,88.20
2017-11-06T05:47:09.904Z,87.90
2017-11-06T05:49:36.743Z,86.30
2017-11-06T05:52:03.748Z,85.60
2017-11-06T05:54:30.644Z,89.40
2017-11-06T05:56:57.591Z,84.50
2017-11-06T05:59:24.550Z,87.30
2017-11-06T06:01:51.617Z,87.90
2017-11-06T06:04:18.860Z,86.20
2017-11-06T06:06:45.181Z,86.70
2017-11-06T06:09:12.036Z,90.10
2017-11-06T06:11:38.879Z,87.60
2017-11-06T06:14:05.196Z,87.60
2017-11-06T06:16:32.069Z,86.40
2017-11-06T06:18:58.375Z,87.20
2017-11-06T06:21:25.773Z,88.10
2017-11-06T06:23:54.041Z,88.20
2017-11-06T06:26:20.388Z,87.90
2017-11-06T06:28:46.703Z,87.30
2017-11-06T06:31:13.773Z,87.30
2017-11-06T06:33:40.721Z,86.40
2017-11-06T06:36:07.574Z,86.00
2017-11-06T06:38:34.212Z,87.70
2017-11-06T06:41:01.262Z,86.00
2017-11-06T06:43:27.565Z,86.60
2017-11-06T06:45:55.087Z,87.60
2017-11-06T06:48:21.917Z,87.00
2017-11-06T06:50:49.064Z,87.10
2017-11-06T06:53:15.400Z,86.90
2017-11-06T06:55:42.183Z,87.20
2017-11-06T06:58:09.248Z,87.30
2017-11-06T07:00:36.358Z,86.50
2017-11-06T07:03:04.231Z,86.70
2017-11-06T07:05:31.133Z,86.80
2017-11-06T07:07:57.497Z,86.10
2017-11-06T07:10:24.260Z,85.10
2017-11-06T07:12:50.637Z,85.20
2017-11-06T07:15:17.748Z,85.90
2017-11-06T07:17:44.293Z,85.60
2017-11-06T07:20:10.614Z,85.80
2017-11-06T07:22:37.025Z,86.00
2017-11-06T07:25:03.423Z,85.70
2017-11-06T07:27:30.247Z,85.90
2017-11-06T07:29:56.574Z,86.50
2017-11-06T07:32:23.513Z,87.00
2017-11-06T07:34:49.832Z,86.30
2017-11-06T07:37:16.928Z,85.90
2017-11-06T07:39:43.712Z,86.60
2017-11-06T07:42:11.454Z,86.40
2017-11-06T07:44:38.293Z,86.30
2017-11-06T07:47:04.616Z,86.10
2017-11-06T07:49:31.573Z,86.30
2017-11-06T07:51:57.881Z,85.30
2017-11-06T07:54:24.225Z,85.30
2017-11-06T07:56:50.581Z,85.70
2017-11-06T07:59:17.432Z,85.40
2017-11-06T08:01:43.847Z,85.70
2017-11-06T08:04:10.723Z,84.80
2017-11-06T08:06:37.885Z,85.60
2017-11-06T08:09:04.968Z,85.80
2017-11-06T08:11:32.048Z,85.70
2017-11-06T08:13:58.523Z,85.60
2017-11-06T08:16:24.849Z,84.80
2017-11-06T08:18:51.257Z,84.40
2017-11-06T08:21:18.353Z,84.30
2017-11-06T08:23:45.167Z,85.10
2017-11-06T08:26:11.502Z,83.80
2017-11-06T08:28:37.823Z,84.70
2017-11-06T08:31:04.983Z,85.10
2017-11-06T08:33:31.307Z,84.70
2017-11-06T08:35:58.952Z,83.10
2017-11-06T08:38:25.774Z,83.20
2017-11-06T08:40:52.649Z,85.10
2017-11-06T08:43:18.944Z,85.00
2017-11-06T08:45:45.728Z,84.20
2017-11-06T08:48:12.549Z,85.20
2017-11-06T08:50:38.882Z,83.70
2017-11-06T08:53:05.201Z,84.00
2017-11-06T08:55:31.551Z,83.70
2017-11-06T08:57:57.871Z,85.40
2017-11-06T09:00:24.297Z,84.30
2017-11-06T09:02:50.972Z,85.10
2017-11-06T09:05:17.937Z,84.50
2017-11-06T09:07:45.004Z,84.90
2017-11-06T09:10:11.832Z,84.80
2017-11-06T09:12:38.699Z,84.00
2017-11-06T09:15:05.054Z,83.80
2017-11-06T09:17:32.103Z,85.20
2017-11-06T09:19:59.292Z,83.60
2017-11-06T09:22:25.613Z,83.50
2017-11-06T09:24:52.040Z,84.30
2017-11-06T09:27:19.597Z,83.70
2017-11-06T09:29:46.661Z,82.00
2017-11-06T09:32:14.452Z,82.90
2017-11-06T09:34:40.756Z,82.90
2017-11-06T09:37:08.493Z,83.30
2017-11-06T09:39:35.332Z,83.20
2017-11-06T09:42:02.057Z,83.20
2017-11-06T09:44:29.141Z,83.10
2017-11-06T09:46:55.460Z,83.40
2017-11-06T09:49:21.769Z,83.10
2017-11-06T09:51:48.661Z,83.60
2017-11-06T09:54:15.709Z,84.80
2017-11-06T09:56:42.021Z,83.70
2017-11-06T09:59:09.176Z,82.40
2017-11-06T10:01:36.867Z,81.90
2017-11-06T10:04:03.205Z,82.00
2017-11-06T10:06:29.525Z,83.40
2017-11-06T10:08:55.876Z,82.00
2017-11-06T10:11:22.188Z,83.60
2017-11-06T10:13:48.643Z,82.80
2017-11-06T10:16:15.117Z,82.10
2017-11-06T10:18:41.437Z,81.40
2017-11-06T10:21:07.768Z,82.00
2017-11-06T10:23:34.308Z,80.70
2017-11-06T10:26:00.757Z,81.60
2017-11-06T10:28:27.106Z,81.20
2017-11-06T10:30:54.235Z,80.00
2017-11-06T10:33:20.596Z,82.20
2017-11-06T10:35:47.492Z,81.30
2017-11-06T10:38:14.370Z,81.90
2017-11-06T10:40:41.424Z,81.80
2017-11-06T10:43:08.503Z,82.00
2017-11-06T10:45:35.326Z,80.90
2017-11-06T10:48:01.696Z,82.60
2017-11-06T10:50:28.832Z,82.90
2017-11-06T10:52:55.659Z,82.70
2017-11-06T10:55:23.505Z,83.30
2017-11-06T10:57:50.796Z,82.70
2017-11-06T11:00:17.981Z,81.40
2017-11-06T11:02:45.094Z,83.20
2017-11-06T11:05:11.461Z,83.10
2017-11-06T11:07:37.829Z,81.70
2017-11-06T11:10:04.293Z,82.90
2017-11-06T11:12:30.747Z,82.10
2017-11-06T11:14:57.145Z,82.10
2017-11-06T11:17:24.221Z,82.20
2017-11-06T11:19:50.571Z,81.40
2017-11-06T11:22:17.391Z,81.20
2017-11-06T11:24:43.845Z,81.80
2017-11-06T11:27:10.192Z,82.70
2017-11-06T11:29:36.557Z,81.50
2017-11-06T11:32:03.282Z,80.90
2017-11-06T11:34:31.725Z,82.60
2017-11-06T11:36:58.725Z,82.90
2017-11-06T11:39:25.677Z,82.70
2017-11-06T11:41:52.886Z,81.10
2017-11-06T11:44:19.241Z,80.70
2017-11-06T11:46:46.009Z,81.00
2017-11-06T11:49:12.965Z,81.60
2017-11-06T11:51:39.813Z,82.00
2017-11-06T11:54:06.660Z,81.50
2017-11-06T11:56:33.509Z,81.50
2017-11-06T11:58:59.844Z,81.60
2017-11-06T12:01:26.688Z,79.80
2017-11-06T12:03:53.016Z,80.90
2017-11-06T12:06:19.773Z,82.10
2017-11-06T12:08:46.105Z,81.20
2017-11-06T12:11:13.040Z,80.20
2017-11-06T12:13:39.392Z,81.40
2017-11-06T12:16:05.695Z,81.80
2017-11-06T12:18:32.610Z,81.50
2017-11-06T12:20:59.662Z,83.30
2017-11-06T12:23:26.709Z,80.90
2017-11-06T12:25:53.061Z,81.10
2017-11-06T12:28:20.112Z,82.00
2017-11-06T12:30:47.964Z,82.70
2017-11-06T12:33:14.581Z,82.60
2017-11-06T12:35:40.917Z,81.80
2017-11-06T12:38:07.673Z,82.50
2017-11-06T12:40:34.530Z,82.50
2017-11-06T12:43:02.184Z,82.10
2017-11-06T12:45:28.524Z,82.10
2017-11-06T12:47:54.830Z,82.00
2017-11-06T12:50:21.193Z,82.30
2017-11-06T12:52:48.149Z,81.80
2017-11-06T12:55:15.145Z,82.00
2017-11-06T12:57:42.244Z,81.80
2017-11-06T13:00:08.606Z,81.90
2017-11-06T13:02:35.409Z,82.20
2017-11-06T13:05:02.317Z,81.60
2017-11-06T13:07:29.989Z,81.10
2017-11-06T13:09:57.083Z,80.70
2017-11-06T13:12:23.439Z,80.60
2017-11-06T13:14:49.785Z,81.20
2017-11-06T13:17:16.256Z,81.30
2017-11-06T13:19:43.407Z,81.10
2017-11-06T13:22:10.572Z,82.00
2017-11-06T13:24:36.896Z,82.00
2017-11-06T13:27:04.637Z,81.70
2017-11-06T13:29:31.784Z,81.70
2017-11-06T13:31:58.740Z,81.90
2017-11-06T13:34:26.714Z,82.50
2017-11-06T13:36:53.672Z,82.20
2017-11-06T13:39:21.328Z,82.50
2017-11-06T13:41:48.064Z,82.50
2017-11-06T13:44:14.483Z,82.30
2017-11-06T13:46:40.837Z,82.10
2017-11-06T13:49:07.705Z,82.40
2017-11-06T13:51:34.848Z,83.10
2017-11-06T13:54:01.189Z,82.20
2017-11-06T13:56:27.509Z,81.90
2017-11-06T13:58:54.287Z,82.20
2017-11-06T14:01:20.609Z,80.80
2017-11-06T14:03:48.896Z,81.60
2017-11-06T14:06:15.200Z,81.70
2017-11-06T14:08:41.520Z,82.00
2017-11-06T14:11:08.208Z,81.90
2017-11-06T14:13:34.542Z,82.90
2017-11-06T14:16:01.012Z,83.00
2017-11-06T14:18:28.538Z,81.80
2017-11-06T14:20:55.861Z,81.70
2017-11-06T14:23:22.191Z,82.40
2017-11-06T14:25:49.246Z,82.40
2017-11-06T14:28:16.245Z,82.10
2017-11-06T14:30:43.294Z,82.50
2017-11-06T14:33:10.312Z,81.20
2017-11-06T14:35:36.637Z,82.00
2017-11-06T14:38:03.728Z,81.80
2017-11-06T14:40:30.928Z,81.70
2017-11-06T14:42:57.977Z,82.60
2017-11-06T14:45:25.024Z,83.00
2017-11-06T14:47:52.872Z,82.80
2017-11-06T14:50:20.546Z,82.20
2017-11-06T14:52:47.588Z,82.20
2017-11-06T14:55:14.753Z,82.50
2017-11-06T14:57:41.884Z,82.10
2017-11-06T15:00:08.231Z,82.10
2017-11-06T15:02:34.890Z,82.40
2017-11-06T15:05:02.037Z,82.50
2017-11-06T15:07:28.416Z,83.10
2017-11-06T15:09:55.479Z,81.90
2017-11-06T15:12:22.169Z,81.90
2017-11-06T15:14:50.349Z,82.40
2017-11-06T15:17:16.711Z,82.10
2017-11-06T15:19:44.773Z,82.30
2017-11-06T15:22:11.149Z,82.30
2017-11-06T15:24:38.261Z,82.80
2017-11-06T15:27:05.364Z,83.20
2017-11-06T15:29:32.663Z,83.20
2017-11-06T15:31:59.818Z,83.30
2017-11-06T15:34:26.127Z,83.80
2017-11-06T15:36:53.517Z,84.00
2017-11-06T15:39:19.861Z,84.90
2017-11-06T15:41:47.043Z,84.40
2017-11-06T15:44:15.836Z,83.50
2017-11-06T15:46:43.901Z,83.70
2017-11-06T15:49:10.873Z,83.60
2017-11-06T15:51:38.693Z,83.40
2017-11-06T15:54:05.024Z,83.30
2017-11-06T15:56:31.350Z,83.90
2017-11-06T15:58:58.013Z,83.30
2017-11-06T16:01:24.336Z,83.30
2017-11-06T16:03:50.727Z,83.60
2017-11-06T16:06:18.357Z,83.80
2017-11-06T16:08:45.548Z,84.00
2017-11-06T16:11:12.621Z,83.10
2017-11-06T16:13:38.951Z,83.10
2017-11-06T16:16:05.542Z,83.10
2017-11-06T16:18:31.877Z,83.20
2017-11-06T16:20:59.127Z,83.20
2017-11-06T16:23:26.181Z,83.10
2017-11-06T16:25:53.461Z,83.30
2017-11-06T16:28:21.317Z,82.80
2017-11-06T16:30:48.573Z,82.80
2017-11-06T16:33:15.909Z,83.10
2017-11-06T16:35:42.262Z,83.60
2017-11-06T16:38:09.713Z,83.20
2017-11-06T16:40:36.879Z,83.40
2017-11-06T16:43:04.001Z,83.10
2017-11-06T16:45:30.413Z,83.30
2017-11-06T16:47:57.476Z,83.60
2017-11-06T16:50:24.491Z,83.60
2017-11-06T16:52:51.585Z,84.80
2017-11-06T16:55:17.925Z,84.80
2017-11-06T16:57:44.616Z,84.30
2017-11-06T17:00:11.704Z,84.00
2017-11-06T17:02:38.800Z,86.30
2017-11-06T17:05:05.117Z,86.40
2017-11-06T17:07:31.792Z,85.30
2017-11-06T17:09:58.829Z,84.40
2017-11-06T17:12:25.328Z,85.70
2017-11-06T17:14:52.449Z,84.40
2017-11-06T17:17:18.761Z,84.30
2017-11-06T17:19:45.832Z,84.10
2017-11-06T17:22:13.000Z,86.20
2017-11-06T17:24:41.680Z,84.40
2017-11-06T17:27:08.740Z,84.40
2017-11-06T17:29:35.894Z,84.40
2017-11-06T17:32:03.248Z,84.30
2017-11-06T17:34:30.512Z,84.40
2017-11-06T17:36:58.259Z,84.70
2017-11-06T17:39:25.430Z,84.60
2017-11-06T17:41:52.593Z,85.70
2017-11-06T17:44:19.637Z,84.50
2017-11-06T17:46:45.981Z,84.70
2017-11-06T17:49:12.317Z,84.70
2017-11-06T17:51:38.961Z,84.80
2017-11-06T17:54:05.280Z,84.90
2017-11-06T17:56:31.764Z,85.90
2017-11-06T17:58:59.814Z,84.40
2017-11-06T18:01:26.160Z,85.20
2017-11-06T18:03:53.200Z,84.60
2017-11-06T18:06:19.535Z,84.70
2017-11-06T18:08:45.845Z,85.00
2017-11-06T18:11:12.927Z,85.20
2017-11-06T18:13:39.232Z,85.00
2017-11-06T18:16:05.563Z,85.10
2017-11-06T18:18:33.360Z,85.20
2017-11-06T18:21:00.408Z,85.50
2017-11-06T18:23:27.568Z,85.30
2017-11-06T18:25:53.887Z,85.40
2017-11-06T18:28:21.165Z,87.40
2017-11-06T18:30:48.212Z,86.30
2017-11-06T18:33:14.525Z,86.90
2017-11-06T18:35:41.709Z,85.60
2017-11-06T18:38:08.753Z,85.20
2017-11-06T18:40:35.824Z,85.20
2017-11-06T18:43:03.273Z,84.90
2017-11-06T18:45:30.232Z,87.00
2017-11-06T18:47:56.562Z,85.50
2017-11-06T18:50:23.657Z,85.70
2017-11-06T18:52:51.493Z,85.90
2017-11-06T18:55:19.181Z,86.00
2017-11-06T18:57:46.207Z,86.10
2017-11-06T19:00:13.748Z,85.80
2017-11-06T19:02:40.109Z,85.50
2017-11-06T19:05:06.453Z,85.50
2017-11-06T19:07:33.576Z,85.80
2017-11-06T19:09:59.921Z,85.90
2017-11-06T19:12:26.992Z,85.80
2017-11-06T19:14:54.145Z,86.30
2017-11-06T19:17:20.628Z,86.10
2017-11-06T19:19:48.870Z,85.80
2017-11-06T19:22:17.553Z,85.30
2017-11-06T19:24:43.880Z,85.30
2017-11-06T19:27:11.076Z,85.50
2017-11-06T19:29:38.716Z,85.30
2017-11-06T19:32:05.991Z,85.30
2017-11-06T19:34:33.126Z,85.40
2017-11-06T19:37:00.277Z,84.60
2017-11-06T19:39:26.601Z,85.10
2017-11-06T19:41:53.669Z,84.90
2017-11-06T19:44:20.037Z,85.00
2017-11-06T19:46:47.237Z,84.40
2017-11-06T19:49:14.734Z,84.30
2017-11-06T19:51:42.044Z,84.50
2017-11-06T19:54:08.484Z,84.50
2017-11-06T19:56:35.733Z,84.30
2017-11-06T19:59:02.870Z,85.50
2017-11-06T20:01:30.742Z,84.50
2017-11-06T20:03:58.478Z,85.30
2017-11-06T20:06:25.024Z,85.30
2017-11-06T20:08:51.365Z,85.10
2017-11-06T20:11:17.755Z,84.40
2017-11-06T20:13:44.981Z,84.70
2017-11-06T20:16:12.053Z,84.60
2017-11-06T20:18:40.046Z,84.50
2017-11-06T20:21:07.236Z,84.50
2017-11-06T20:23:33.572Z,84.40
2017-11-06T20:25:59.926Z,85.20
2017-11-06T20:28:26.649Z,85.20
2017-11-06T20:30:53.932Z,85.70
2017-11-06T20:33:21.638Z,84.90
2017-11-06T20:35:48.934Z,84.90
2017-11-06T20:38:15.984Z,84.40
2017-11-06T20:40:43.237Z,84.20
2017-11-06T20:43:09.570Z,84.60
2017-11-06T20:45:36.728Z,84.60
2017-11-06T20:48:03.093Z,85.20
2017-11-06T20:50:30.952Z,85.30
2017-11-06T20:52:57.341Z,85.30
2017-11-06T20:55:24.432Z,85.60
2017-11-06T20:57:50.773Z,85.80
2017-11-06T21:00:19.081Z,85.40
2017-11-06T21:02:46.220Z,85.40
2017-11-06T21:05:12.720Z,85.40
2017-11-06T21:07:39.101Z,85.70
2017-11-06T21:10:06.378Z,85.40
2017-11-06T21:12:33.528Z,85.60
2017-11-06T21:15:01.365Z,85.80
2017-11-06T21:17:27.707Z,85.80
2017-11-06T21:19:54.053Z,85.90
2017-11-06T21:22:21.500Z,85.70
2017-11-06T21:24:47.980Z,85.50
2017-11-06T21:27:15.798Z,84.90
2017-11-06T21:29:58.924Z,84.90
2017-11-06T21:32:26.280Z,85.10
2017-11-06T21:34:52.661Z,85.00
2017-11-06T21:37:20.704Z,84.10
2017-11-06T21:39:48.153Z,84.10
2017-11-06T21:42:14.501Z,84.10
2017-11-06T21:44:41.653Z,84.60
2017-11-06T21:47:07.966Z,84.80
2017-11-06T21:49:35.557Z,85.00
2017-11-06T21:52:01.967Z,84.90
2017-11-06T21:54:29.245Z,85.30
2017-11-06T21:56:57.116Z,85.50
2017-11-06T21:59:24.376Z,85.30
2017-11-06T22:01:50.680Z,85.00
2017-11-06T22:04:16.997Z,85.30
2017-11-06T22:06:44.109Z,86.10
2017-11-06T22:09:11.261Z,86.10
2017-11-06T22:11:37.670Z,85.30
2017-11-06T22:14:04.597Z,84.40
2017-11-06T22:16:30.940Z,84.50
2017-11-06T22:18:57.277Z,84.60
2017-11-06T22:21:24.580Z,84.60
2017-11-06T22:23:51.733Z,84.80
2017-11-06T22:26:18.036Z,85.70
2017-11-06T22:28:44.369Z,85.70
2017-11-06T22:31:11.453Z,85.30
2017-11-06T22:33:38.812Z,85.40
2017-11-06T22:36:05.128Z,86.10
2017-11-06T22:38:32.003Z,85.90
2017-11-06T22:40:59.261Z,86.50
2017-11-06T22:43:25.581Z,86.10
2017-11-06T22:45:51.900Z,85.80
2017-11-06T22:48:19.097Z,86.40
2017-11-06T22:50:45.424Z,86.10
2017-11-06T22:53:12.376Z,86.20
2017-11-06T22:55:39.536Z,85.70
2017-11-06T22:58:05.853Z,85.30
2017-11-06T23:00:32.184Z,85.20
2017-11-06T23:02:58.553Z,85.50
2017-11-06T23:05:26.712Z,85.80
2017-11-06T23:07:53.017Z,85.80
2017-11-06T23:10:20.205Z,86.40
2017-11-06T23:12:46.521Z,86.30
2017-11-06T23:15:19.741Z,86.30
2017-11-06T23:17:46.048Z,86.40
2017-11-06T23:20:12.355Z,85.70
2017-11-06T23:22:40.285Z,85.20
2017-11-06T23:25:06.632Z,85.20
2017-11-06T23:27:33.697Z,84.10
2017-11-06T23:30:00.873Z,84.10
2017-11-06T23:32:28.900Z,84.10
2017-11-06T23:34:55.232Z,84.10
2017-11-06T23:37:22.405Z,84.80
2017-11-06T23:39:50.464Z,85.50
2017-11-06T23:42:16.777Z,85.60
2017-11-06T23:44:43.109Z,84.90
2017-11-06T23:47:09.505Z,84.60
2017-11-06T23:49:36.536Z,85.30
2017-11-06T23:52:03.931Z,85.50
2017-11-06T23:54:31.024Z,85.90
2017-11-06T23:56:57.328Z,85.90
2017-11-06T23:59:25.149Z,86.00
